Time;durP1;ratioP1;P1;durP2;ratioP2;P2;SDS_P1;SDS_P2;PMS_P1;PMS_P2;Temp;Humidity;BMP_temperature;BMP_pressure;BME280_temperature;BME280_humidity;BME280_pressure;Samples;Min_cycle;Max_cycle;Signal;HPM_P1;HPM_P2
2021/08/01 00:00:09;;;;;;;10.50;4.43;;;;;;;;;;4994799;28;20160;-79
2021/08/01 00:02:34;;;;;;;11.05;4.50;;;;;;;;;;4989943;28;20089;-78
2021/08/01 00:05:00;;;;;;;11.40;4.80;;;;;;;;;;4991433;28;20035;-79
2021/08/01 00:07:25;;;;;;;13.35;5.03;;;;;;;;;;4972082;28;20042;-79
2021/08/01 00:09:57;;;;;;;12.68;4.47;;;;;;;;;;4982776;28;20506;-79
2021/08/01 00:12:23;;;;;;;11.20;5.05;;;;;;;;;;4989889;28;20042;-79
2021/08/01 00:14:48;;;;;;;9.90;4.38;;;;;;;;;;4982493;28;20043;-80
2021/08/01 00:17:14;;;;;;;13.43;4.40;;;;;;;;;;4974959;28;20560;-79
2021/08/01 00:19:39;;;;;;;12.82;4.60;;;;;;;;;;4970790;28;20027;-79
2021/08/01 00:22:04;;;;;;;14.48;4.40;;;;;;;;;;5001384;28;20105;-79
2021/08/01 00:24:30;;;;;;;10.27;3.90;;;;;;;;;;4989196;28;20532;-79
2021/08/01 00:26:55;;;;;;;10.75;4.55;;;;;;;;;;4987766;28;20094;-79
2021/08/01 00:29:21;;;;;;;11.45;4.15;;;;;;;;;;4985502;28;20030;-80
2021/08/01 00:31:46;;;;;;;15.20;4.72;;;;;;;;;;4986797;28;20031;-79
2021/08/01 00:34:12;;;;;;;12.80;4.60;;;;;;;;;;4987444;28;20031;-79
2021/08/01 00:36:37;;;;;;;9.02;4.28;;;;;;;;;;4981113;28;20494;-79
2021/08/01 00:39:03;;;;;;;7.07;3.63;;;;;;;;;;4981534;28;20399;-79
2021/08/01 00:41:28;;;;;;;11.63;3.85;;;;;;;;;;4959344;28;20130;-79
2021/08/01 00:43:54;;;;;;;8.50;4.15;;;;;;;;;;5002871;28;20146;-79
2021/08/01 00:46:19;;;;;;;8.57;4.00;;;;;;;;;;4975543;28;20042;-79
2021/08/01 00:48:45;;;;;;;8.55;4.00;;;;;;;;;;4960658;28;20026;-79
2021/08/01 00:51:11;;;;;;;11.68;4.43;;;;;;;;;;4956660;28;20069;-79
2021/08/01 00:53:37;;;;;;;11.48;4.13;;;;;;;;;;4983044;28;20054;-83
2021/08/01 00:56:02;;;;;;;13.88;4.30;;;;;;;;;;4990733;28;20061;-83
2021/08/01 00:58:27;;;;;;;10.82;4.60;;;;;;;;;;4994487;28;20456;-84
2021/08/01 01:01:15;;;;;;;11.05;4.10;;;;;;;;;;4988107;28;20490;-84
2021/08/01 01:03:43;;;;;;;18.50;4.82;;;;;;;;;;4991438;28;20432;-84
2021/08/01 01:06:17;;;;;;;13.52;4.28;;;;;;;;;;4994998;28;20122;-84
2021/08/01 01:08:49;;;;;;;17.38;5.20;;;;;;;;;;4988420;28;20061;-84
2021/08/01 01:11:16;;;;;;;9.63;3.97;;;;;;;;;;4995130;28;20040;-84
2021/08/01 01:13:46;;;;;;;12.43;4.57;;;;;;;;;;4989246;28;20022;-84
2021/08/01 01:16:12;;;;;;;10.60;4.55;;;;;;;;;;4988961;28;20061;-84
2021/08/01 01:18:46;;;;;;;15.57;4.47;;;;;;;;;;4997295;28;20507;-84
2021/08/01 01:21:30;;;;;;;12.43;4.10;;;;;;;;;;4994086;28;20109;-84
2021/08/01 01:24:22;;;;;;;12.25;4.20;;;;;;;;;;4988696;28;20045;-79
2021/08/01 01:27:12;;;;;;;14.30;4.03;;;;;;;;;;5000416;28;20069;-79
2021/08/01 01:29:42;;;;;;;17.08;5.70;;;;;;;;;;5008865;28;20502;-78
2021/08/01 01:32:10;;;;;;;12.35;4.15;;;;;;;;;;4992100;28;20088;-79
2021/08/01 01:34:54;;;;;;;10.90;4.03;;;;;;;;;;4985245;28;20034;-79
2021/08/01 01:37:21;;;;;;;12.48;4.50;;;;;;;;;;4987081;28;20444;-77
2021/08/01 01:39:48;;;;;;;14.70;4.13;;;;;;;;;;4980751;28;20559;-79
2021/08/01 01:42:16;;;;;;;9.10;3.83;;;;;;;;;;4986121;28;20041;-80
2021/08/01 01:44:45;;;;;;;11.95;3.60;;;;;;;;;;4990289;28;20486;-79
2021/08/01 01:47:14;;;;;;;9.63;3.90;;;;;;;;;;4988687;28;20121;-79
2021/08/01 01:49:41;;;;;;;11.65;4.10;;;;;;;;;;4989493;28;20030;-79
2021/08/01 01:52:10;;;;;;;6.05;3.95;;;;;;;;;;4979713;28;20490;-79
2021/08/01 01:54:35;;;;;;;11.57;4.63;;;;;;;;;;4985905;28;20022;-82
2021/08/01 01:57:02;;;;;;;12.07;4.07;;;;;;;;;;4968538;28;20038;-82
2021/08/01 01:59:27;;;;;;;16.10;4.40;;;;;;;;;;4984249;28;22580;-82
2021/08/01 02:01:53;;;;;;;14.50;4.07;;;;;;;;;;4976419;28;20034;-82
2021/08/01 02:04:18;;;;;;;16.40;4.72;;;;;;;;;;4989220;28;20033;-82
2021/08/01 02:06:44;;;;;;;14.18;4.10;;;;;;;;;;4975284;28;20034;-83
2021/08/01 02:09:24;;;;;;;13.85;4.45;;;;;;;;;;4982755;28;20038;-81
2021/08/01 02:12:15;;;;;;;11.27;4.53;;;;;;;;;;4986300;28;20501;-82
2021/08/01 02:15:02;;;;;;;11.93;4.30;;;;;;;;;;4982993;28;20113;-83
2021/08/01 02:17:38;;;;;;;10.02;3.40;;;;;;;;;;5002002;28;20775;-82
2021/08/01 02:20:07;;;;;;;10.98;4.10;;;;;;;;;;4984008;28;20560;-82
2021/08/01 02:22:32;;;;;;;7.60;3.50;;;;;;;;;;4989041;28;20768;-79
2021/08/01 02:24:59;;;;;;;10.55;4.20;;;;;;;;;;4970209;28;20035;-78
2021/08/01 02:27:28;;;;;;;9.50;4.30;;;;;;;;;;4975013;28;20531;-79
2021/08/01 02:29:54;;;;;;;14.57;3.95;;;;;;;;;;4993066;28;20432;-78
2021/08/01 02:32:20;;;;;;;9.52;4.35;;;;;;;;;;4971198;28;20026;-79
2021/08/01 02:34:45;;;;;;;21.00;5.45;;;;;;;;;;4967992;28;20018;-79
2021/08/01 02:37:14;;;;;;;14.35;4.32;;;;;;;;;;4974295;28;20053;-79
2021/08/01 02:39:41;;;;;;;12.15;3.95;;;;;;;;;;4989760;28;20022;-80
2021/08/01 02:42:10;;;;;;;12.20;4.22;;;;;;;;;;4987678;28;20038;-79
2021/08/01 02:44:37;;;;;;;15.13;4.30;;;;;;;;;;5004525;28;20101;-79
2021/08/01 02:47:07;;;;;;;11.20;4.82;;;;;;;;;;4986295;28;20611;-78
2021/08/01 02:49:37;;;;;;;11.23;3.95;;;;;;;;;;4987323;28;20030;-78
2021/08/01 02:52:04;;;;;;;14.25;4.45;;;;;;;;;;4989323;28;20022;-79
2021/08/01 02:54:31;;;;;;;14.85;4.65;;;;;;;;;;4991686;28;20084;-84
2021/08/01 02:57:00;;;;;;;11.30;4.35;;;;;;;;;;4986434;28;20034;-83
2021/08/01 02:59:27;;;;;;;11.07;3.60;;;;;;;;;;4986897;28;20026;-83
2021/08/01 03:01:54;;;;;;;21.30;4.25;;;;;;;;;;4970596;28;20043;-82
2021/08/01 03:04:24;;;;;;;18.40;4.57;;;;;;;;;;4986417;28;20054;-82
2021/08/01 03:06:49;;;;;;;10.55;4.18;;;;;;;;;;5003930;28;20045;-82
2021/08/01 03:09:15;;;;;;;11.38;3.67;;;;;;;;;;4992387;28;20029;-82
2021/08/01 03:11:40;;;;;;;12.43;4.22;;;;;;;;;;4996825;28;20038;-81
2021/08/01 03:14:06;;;;;;;13.50;4.50;;;;;;;;;;4989644;28;20531;-81
2021/08/01 03:16:31;;;;;;;17.08;4.45;;;;;;;;;;4983238;28;20037;-81
2021/08/01 03:18:57;;;;;;;17.35;4.45;;;;;;;;;;4965236;28;20030;-82
2021/08/01 03:21:22;;;;;;;9.73;4.47;;;;;;;;;;4989356;28;20493;-82
2021/08/01 03:23:48;;;;;;;11.63;4.28;;;;;;;;;;4991470;28;20031;-79
2021/08/01 03:26:13;;;;;;;10.25;3.83;;;;;;;;;;4992417;28;20023;-79
2021/08/01 03:28:39;;;;;;;15.32;4.43;;;;;;;;;;4996141;28;20030;-78
2021/08/01 03:31:04;;;;;;;16.60;4.65;;;;;;;;;;4973407;28;20149;-78
2021/08/01 03:33:30;;;;;;;13.00;4.60;;;;;;;;;;4993257;28;20457;-78
2021/08/01 03:35:55;;;;;;;16.48;4.65;;;;;;;;;;4974645;28;20109;-78
2021/08/01 03:38:21;;;;;;;10.07;4.05;;;;;;;;;;4984521;28;20034;-78
2021/08/01 03:40:49;;;;;;;12.10;4.35;;;;;;;;;;4987702;28;20034;-79
2021/08/01 03:43:14;;;;;;;14.73;4.32;;;;;;;;;;5000589;28;20413;-79
2021/08/01 03:45:41;;;;;;;9.80;4.28;;;;;;;;;;4993116;28;20034;-78
2021/08/01 03:48:06;;;;;;;9.48;4.22;;;;;;;;;;4976181;28;20058;-78
2021/08/01 03:50:32;;;;;;;11.77;5.35;;;;;;;;;;4975318;28;20064;-79
2021/08/01 03:52:57;;;;;;;12.75;4.65;;;;;;;;;;5009349;28;20053;-79
2021/08/01 03:55:22;;;;;;;9.30;3.88;;;;;;;;;;4992112;28;20099;-79
2021/08/01 03:57:48;;;;;;;11.90;4.40;;;;;;;;;;4998708;28;20076;-78
2021/08/01 04:00:14;;;;;;;12.05;5.20;;;;;;;;;;4983302;28;20023;-78
2021/08/01 04:02:39;;;;;;;12.35;4.57;;;;;;;;;;5001514;28;20129;-78
2021/08/01 04:05:06;;;;;;;12.35;4.30;;;;;;;;;;4961578;28;20030;-78
2021/08/01 04:07:32;;;;;;;15.68;5.30;;;;;;;;;;4995677;28;20405;-78
2021/08/01 04:09:58;;;;;;;11.50;4.00;;;;;;;;;;4987559;28;20034;-77
2021/08/01 04:12:24;;;;;;;10.35;4.05;;;;;;;;;;4998260;28;20386;-78
2021/08/01 04:14:50;;;;;;;11.88;4.45;;;;;;;;;;5003723;28;20106;-77
2021/08/01 04:17:19;;;;;;;9.60;4.45;;;;;;;;;;5001421;28;20034;-77
2021/08/01 04:19:45;;;;;;;15.60;4.28;;;;;;;;;;4985312;28;20034;-78
2021/08/01 04:22:12;;;;;;;11.27;4.32;;;;;;;;;;5003917;28;20093;-77
2021/08/01 04:24:38;;;;;;;13.55;4.07;;;;;;;;;;4966266;28;20046;-78
2021/08/01 04:27:03;;;;;;;11.90;4.47;;;;;;;;;;4951647;28;20031;-78
2021/08/01 04:29:29;;;;;;;12.98;4.30;;;;;;;;;;4995312;28;20104;-78
2021/08/01 04:31:54;;;;;;;11.30;4.40;;;;;;;;;;4956309;28;20038;-78
2021/08/01 04:34:20;;;;;;;9.73;3.78;;;;;;;;;;4976967;28;20034;-77
2021/08/01 04:36:45;;;;;;;18.13;4.97;;;;;;;;;;4988472;28;20038;-78
2021/08/01 04:39:11;;;;;;;9.68;3.70;;;;;;;;;;5002121;28;20042;-78
2021/08/01 04:41:36;;;;;;;9.00;3.60;;;;;;;;;;4992850;28;20409;-78
2021/08/01 04:44:01;;;;;;;11.65;3.97;;;;;;;;;;4982128;28;20084;-78
2021/08/01 04:46:27;;;;;;;12.38;3.67;;;;;;;;;;4987778;28;20576;-78
2021/08/01 04:48:52;;;;;;;9.88;4.15;;;;;;;;;;4979694;28;20136;-77
2021/08/01 04:51:18;;;;;;;15.82;3.78;;;;;;;;;;4994508;28;20026;-78
2021/08/01 04:53:43;;;;;;;13.98;4.35;;;;;;;;;;4995697;28;20076;-81
2021/08/01 04:56:10;;;;;;;16.25;4.25;;;;;;;;;;4993007;28;20022;-81
2021/08/01 04:58:36;;;;;;;10.27;3.88;;;;;;;;;;4994585;28;20037;-83
2021/08/01 05:01:02;;;;;;;12.27;3.95;;;;;;;;;;4988266;28;20030;-81
2021/08/01 05:03:27;;;;;;;9.15;4.35;;;;;;;;;;4987833;28;20046;-81
2021/08/01 05:05:53;;;;;;;7.53;3.20;;;;;;;;;;4976115;28;20046;-81
2021/08/01 05:08:18;;;;;;;12.32;2.90;;;;;;;;;;4981877;28;20116;-81
2021/08/01 05:10:44;;;;;;;8.30;3.50;;;;;;;;;;4985867;28;20903;-82
2021/08/01 05:13:09;;;;;;;11.70;3.35;;;;;;;;;;4990616;28;20096;-82
2021/08/01 05:15:34;;;;;;;7.88;3.08;;;;;;;;;;4993018;28;20026;-81
2021/08/01 05:18:02;;;;;;;7.43;2.72;;;;;;;;;;4987712;28;20034;-82
2021/08/01 05:20:27;;;;;;;10.07;3.38;;;;;;;;;;5003042;28;20025;-82
2021/08/01 05:22:53;;;;;;;8.73;3.10;;;;;;;;;;4986660;28;20034;-81
2021/08/01 05:25:18;;;;;;;7.90;2.65;;;;;;;;;;4993856;28;20030;-81
2021/08/01 05:27:44;;;;;;;7.65;2.90;;;;;;;;;;4985519;28;20177;-81
2021/08/01 05:30:10;;;;;;;9.95;2.47;;;;;;;;;;4970830;28;20026;-81
2021/08/01 05:32:36;;;;;;;7.22;3.10;;;;;;;;;;4990724;28;20512;-81
2021/08/01 05:35:02;;;;;;;10.63;2.88;;;;;;;;;;4960742;28;20046;-80
2021/08/01 05:37:28;;;;;;;14.43;3.33;;;;;;;;;;4996523;28;20035;-81
2021/08/01 05:39:53;;;;;;;7.45;2.95;;;;;;;;;;4984157;28;20030;-81
2021/08/01 05:42:19;;;;;;;9.75;3.22;;;;;;;;;;4993915;28;20070;-81
2021/08/01 05:44:44;;;;;;;10.52;3.38;;;;;;;;;;4982384;28;20161;-81
2021/08/01 05:47:10;;;;;;;10.32;3.20;;;;;;;;;;5002587;28;20076;-81
2021/08/01 05:49:35;;;;;;;12.10;3.17;;;;;;;;;;4985439;28;20129;-81
2021/08/01 05:52:02;;;;;;;9.68;3.08;;;;;;;;;;4986679;28;20096;-81
2021/08/01 05:54:27;;;;;;;7.18;2.85;;;;;;;;;;4990419;28;20022;-82
2021/08/01 05:56:53;;;;;;;6.93;2.97;;;;;;;;;;4988821;28;20030;-82
2021/08/01 05:59:18;;;;;;;10.80;3.22;;;;;;;;;;4996323;28;20117;-81
2021/08/01 06:01:44;;;;;;;8.88;2.47;;;;;;;;;;4992114;28;20062;-82
2021/08/01 06:04:09;;;;;;;8.73;2.90;;;;;;;;;;4993029;28;20026;-82
2021/08/01 06:06:35;;;;;;;8.35;3.25;;;;;;;;;;4988922;28;20042;-82
2021/08/01 06:09:02;;;;;;;15.75;3.15;;;;;;;;;;4980868;28;20044;-81
2021/08/01 06:11:27;;;;;;;8.10;3.20;;;;;;;;;;4986990;28;20037;-82
2021/08/01 06:13:53;;;;;;;9.65;2.85;;;;;;;;;;5001112;28;20034;-81
2021/08/01 06:16:18;;;;;;;11.43;3.60;;;;;;;;;;4992556;28;20042;-81
2021/08/01 06:18:44;;;;;;;11.65;3.35;;;;;;;;;;4987799;28;20030;-81
2021/08/01 06:21:16;;;;;;;11.07;3.40;;;;;;;;;;4979926;28;20121;-81
2021/08/01 06:23:45;;;;;;;8.13;2.83;;;;;;;;;;4985029;28;20037;-82
2021/08/01 06:26:12;;;;;;;10.80;2.65;;;;;;;;;;4990874;28;20730;-81
2021/08/01 06:28:37;;;;;;;14.70;2.63;;;;;;;;;;4983871;28;20469;-82
2021/08/01 06:31:04;;;;;;;14.50;2.80;;;;;;;;;;4985430;28;20057;-81
2021/08/01 06:33:30;;;;;;;9.70;2.60;;;;;;;;;;4994907;28;20498;-80
2021/08/01 06:35:56;;;;;;;7.25;2.60;;;;;;;;;;4992523;28;20040;-81
2021/08/01 06:38:22;;;;;;;6.00;2.50;;;;;;;;;;4994022;28;20041;-81
2021/08/01 06:40:48;;;;;;;11.63;2.72;;;;;;;;;;4999043;28;20026;-81
2021/08/01 06:43:13;;;;;;;6.57;2.63;;;;;;;;;;4985565;28;20844;-81
2021/08/01 06:45:39;;;;;;;10.07;2.67;;;;;;;;;;4993198;28;20088;-81
2021/08/01 06:48:06;;;;;;;7.05;2.60;;;;;;;;;;4996982;28;20030;-82
2021/08/01 06:50:32;;;;;;;22.60;3.20;;;;;;;;;;4975540;28;20026;-81
2021/08/01 06:52:57;;;;;;;5.95;2.47;;;;;;;;;;4990223;28;20348;-81
2021/08/01 06:55:23;;;;;;;9.73;3.30;;;;;;;;;;4963352;28;20113;-82
2021/08/01 06:57:48;;;;;;;10.35;2.83;;;;;;;;;;4995223;28;20049;-82
2021/08/01 07:00:14;;;;;;;10.27;2.80;;;;;;;;;;4981087;28;20053;-82
2021/08/01 07:02:40;;;;;;;13.27;3.20;;;;;;;;;;4987036;28;20044;-82
2021/08/01 07:05:05;;;;;;;10.05;2.80;;;;;;;;;;4966322;28;20034;-81
2021/08/01 07:07:31;;;;;;;11.40;2.97;;;;;;;;;;4962097;28;20054;-81
2021/08/01 07:09:56;;;;;;;9.93;3.30;;;;;;;;;;4980435;28;20044;-81
2021/08/01 07:12:22;;;;;;;7.90;3.10;;;;;;;;;;4990170;28;20441;-84
2021/08/01 07:14:48;;;;;;;15.15;3.05;;;;;;;;;;4998052;28;20025;-83
2021/08/01 07:17:13;;;;;;;6.32;3.00;;;;;;;;;;4989547;28;21402;-81
2021/08/01 07:19:39;;;;;;;12.38;2.88;;;;;;;;;;4977299;28;20129;-82
2021/08/01 07:22:05;;;;;;;14.07;3.38;;;;;;;;;;4993913;28;20041;-82
2021/08/01 07:24:30;;;;;;;13.07;3.05;;;;;;;;;;4998299;28;20034;-78
2021/08/01 07:26:56;;;;;;;5.25;2.60;;;;;;;;;;4998611;28;20584;-77
2021/08/01 07:29:22;;;;;;;10.02;2.67;;;;;;;;;;4996309;28;20441;-78
2021/08/01 07:31:48;;;;;;;10.18;3.00;;;;;;;;;;4997200;28;20491;-78
2021/08/01 07:34:13;;;;;;;8.02;2.78;;;;;;;;;;4996352;28;20021;-78
2021/08/01 07:36:38;;;;;;;10.75;3.05;;;;;;;;;;4983239;28;20556;-77
2021/08/01 07:39:05;;;;;;;10.07;3.38;;;;;;;;;;4989725;28;20081;-78
2021/08/01 07:41:31;;;;;;;8.50;2.80;;;;;;;;;;4991668;28;20493;-78
2021/08/01 07:43:56;;;;;;;10.40;2.83;;;;;;;;;;4991555;28;20081;-78
2021/08/01 07:46:22;;;;;;;11.38;3.80;;;;;;;;;;4996803;28;20080;-78
2021/08/01 07:48:47;;;;;;;9.38;3.40;;;;;;;;;;4992400;28;20066;-79
2021/08/01 07:51:13;;;;;;;5.97;3.00;;;;;;;;;;4996528;28;20047;-78
2021/08/01 07:53:38;;;;;;;17.90;4.15;;;;;;;;;;4997049;28;20142;-78
2021/08/01 07:56:04;;;;;;;21.98;4.97;;;;;;;;;;4986586;28;20038;-79
2021/08/01 07:58:30;;;;;;;11.63;4.18;;;;;;;;;;4968265;28;20113;-79
2021/08/01 08:00:56;;;;;;;14.98;3.00;;;;;;;;;;4957109;28;20433;-77
2021/08/01 08:03:21;;;;;;;14.18;3.70;;;;;;;;;;4991559;28;20162;-79
2021/08/01 08:05:46;;;;;;;12.85;3.50;;;;;;;;;;4989623;28;20049;-78
2021/08/01 08:08:12;;;;;;;10.10;3.45;;;;;;;;;;4985073;28;20093;-79
2021/08/01 08:10:37;;;;;;;17.25;3.70;;;;;;;;;;5003100;28;20117;-78
2021/08/01 08:13:03;;;;;;;8.15;3.10;;;;;;;;;;4997138;28;20121;-77
2021/08/01 08:15:29;;;;;;;9.18;3.05;;;;;;;;;;4994441;28;20038;-77
2021/08/01 08:17:54;;;;;;;11.40;3.10;;;;;;;;;;4984323;28;20057;-77
2021/08/01 08:20:20;;;;;;;10.45;3.45;;;;;;;;;;4994046;28;20444;-78
2021/08/01 08:22:45;;;;;;;7.75;2.80;;;;;;;;;;5000572;28;20434;-78
2021/08/01 08:25:11;;;;;;;11.35;3.17;;;;;;;;;;5000199;28;20519;-77
2021/08/01 08:27:36;;;;;;;9.13;2.70;;;;;;;;;;5003625;28;20083;-78
2021/08/01 08:30:04;;;;;;;15.18;3.22;;;;;;;;;;4996756;28;20061;-77
2021/08/01 08:32:30;;;;;;;6.82;3.00;;;;;;;;;;5004475;28;20021;-79
2021/08/01 08:34:56;;;;;;;10.13;2.70;;;;;;;;;;4980874;28;20031;-80
2021/08/01 08:37:22;;;;;;;9.93;2.80;;;;;;;;;;4994171;28;20112;-79
2021/08/01 08:39:48;;;;;;;5.57;2.35;;;;;;;;;;4978862;28;20386;-80
2021/08/01 08:42:17;;;;;;;13.95;2.22;;;;;;;;;;4985804;28;20567;-80
2021/08/01 08:44:43;;;;;;;8.82;2.28;;;;;;;;;;4999849;28;20132;-80
2021/08/01 08:47:08;;;;;;;5.57;2.20;;;;;;;;;;5009180;28;20102;-79
2021/08/01 08:49:37;;;;;;;6.03;2.40;;;;;;;;;;5004214;28;20034;-79
2021/08/01 08:52:06;;;;;;;11.65;2.78;;;;;;;;;;4988321;28;20561;-78
2021/08/01 08:54:39;;;;;;;8.00;2.22;;;;;;;;;;4999933;28;20378;-79
2021/08/01 08:57:29;;;;;;;8.13;2.45;;;;;;;;;;4989100;28;20344;-79
2021/08/01 09:00:05;;;;;;;5.15;2.00;;;;;;;;;;4996547;28;20046;-79
2021/08/01 09:02:30;;;;;;;9.32;1.88;;;;;;;;;;4997187;28;20022;-79
2021/08/01 09:05:00;;;;;;;9.27;2.70;;;;;;;;;;5010389;28;20493;-79
2021/08/01 09:07:25;;;;;;;6.70;2.22;;;;;;;;;;4995593;28;20862;-79
2021/08/01 09:09:51;;;;;;;7.60;1.80;;;;;;;;;;4995747;28;20034;-79
2021/08/01 09:12:17;;;;;;;6.32;2.70;;;;;;;;;;4998759;28;20498;-78
2021/08/01 09:14:43;;;;;;;5.43;1.90;;;;;;;;;;4988942;28;20425;-79
2021/08/01 09:17:08;;;;;;;4.05;2.17;;;;;;;;;;5001569;28;20040;-80
2021/08/01 09:19:36;;;;;;;5.57;2.22;;;;;;;;;;4975319;28;20041;-79
2021/08/01 09:22:13;;;;;;;5.75;1.90;;;;;;;;;;4990059;28;20034;-80
2021/08/01 09:24:39;;;;;;;5.65;2.08;;;;;;;;;;4989593;28;20022;-79
2021/08/01 09:27:05;;;;;;;5.57;2.20;;;;;;;;;;4996642;28;20165;-79
2021/08/01 09:29:48;;;;;;;7.35;2.50;;;;;;;;;;4992953;28;20045;-78
2021/08/01 09:32:14;;;;;;;5.70;2.05;;;;;;;;;;4995097;28;20041;-78
2021/08/01 09:34:45;;;;;;;6.93;2.13;;;;;;;;;;4996199;28;20022;-79
2021/08/01 09:37:11;;;;;;;5.93;2.35;;;;;;;;;;4997245;28;20034;-80
2021/08/01 09:39:41;;;;;;;12.02;2.65;;;;;;;;;;4987354;28;20525;-79
2021/08/01 09:42:08;;;;;;;5.88;2.22;;;;;;;;;;4981510;28;20061;-79
2021/08/01 09:44:39;;;;;;;6.38;2.58;;;;;;;;;;4988092;28;20121;-79
2021/08/01 09:47:05;;;;;;;18.63;3.75;;;;;;;;;;4982688;28;20119;-79
2021/08/01 09:49:31;;;;;;;11.50;2.90;;;;;;;;;;4986475;28;20053;-79
2021/08/01 09:51:59;;;;;;;8.60;3.60;;;;;;;;;;4969807;28;20437;-79
2021/08/01 09:54:27;;;;;;;5.93;3.03;;;;;;;;;;4970409;28;20026;-79
2021/08/01 09:57:00;;;;;;;13.32;2.83;;;;;;;;;;4990492;28;20038;-78
2021/08/01 09:59:31;;;;;;;8.32;2.60;;;;;;;;;;4986133;28;20092;-80
2021/08/01 10:02:01;;;;;;;15.53;2.40;;;;;;;;;;4989046;28;20037;-79
2021/08/01 10:04:34;;;;;;;7.38;2.42;;;;;;;;;;5007019;28;20108;-77
2021/08/01 10:07:10;;;;;;;4.10;2.00;;;;;;;;;;4989585;28;20034;-79
2021/08/01 10:09:38;;;;;;;6.47;2.33;;;;;;;;;;4993012;28;20177;-78
2021/08/01 10:12:05;;;;;;;15.27;3.15;;;;;;;;;;4984557;28;20105;-78
2021/08/01 10:14:31;;;;;;;5.32;2.03;;;;;;;;;;4986472;28;20030;-78
2021/08/01 10:16:58;;;;;;;8.77;1.92;;;;;;;;;;4998854;28;20046;-78
2021/08/01 10:19:24;;;;;;;14.60;2.70;;;;;;;;;;4995676;28;20604;-78
2021/08/01 10:21:54;;;;;;;6.07;2.33;;;;;;;;;;4996199;28;20048;-77
2021/08/01 10:24:24;;;;;;;7.82;2.60;;;;;;;;;;4999293;28;20530;-78
2021/08/01 10:26:52;;;;;;;5.20;1.95;;;;;;;;;;4995155;28;20040;-78
2021/08/01 10:29:33;;;;;;;4.18;2.00;;;;;;;;;;4996666;28;20034;-78
2021/08/01 10:32:04;;;;;;;10.05;3.17;;;;;;;;;;4993817;28;20098;-78
2021/08/01 10:34:53;;;;;;;4.35;2.05;;;;;;;;;;4993223;28;20057;-80
2021/08/01 10:37:27;;;;;;;4.43;1.88;;;;;;;;;;4985497;28;20394;-80
2021/08/01 10:39:53;;;;;;;9.27;2.25;;;;;;;;;;5011642;28;20409;-80
2021/08/01 10:42:23;;;;;;;7.80;2.28;;;;;;;;;;4975588;28;20037;-80
2021/08/01 10:44:49;;;;;;;7.30;2.35;;;;;;;;;;4992069;28;20058;-80
2021/08/01 10:47:15;;;;;;;7.97;2.72;;;;;;;;;;4993209;28;20042;-79
2021/08/01 10:49:43;;;;;;;13.07;2.08;;;;;;;;;;4986982;28;20169;-79
2021/08/01 10:52:12;;;;;;;7.90;2.30;;;;;;;;;;4996327;28;20038;-80
2021/08/01 10:54:55;;;;;;;8.20;2.15;;;;;;;;;;4988602;28;20101;-79
2021/08/01 10:57:21;;;;;;;6.05;2.22;;;;;;;;;;4996477;28;20030;-79
2021/08/01 10:59:47;;;;;;;8.35;2.97;;;;;;;;;;4996678;28;20030;-79
2021/08/01 11:02:20;;;;;;;9.73;2.55;;;;;;;;;;4997097;28;20764;-80
2021/08/01 11:04:47;;;;;;;6.50;2.40;;;;;;;;;;4995557;28;20132;-80
2021/08/01 11:07:32;;;;;;;10.90;2.38;;;;;;;;;;4995380;28;20576;-79
2021/08/01 11:10:04;;;;;;;13.30;1.95;;;;;;;;;;4994751;28;20030;-80
2021/08/01 11:12:41;;;;;;;6.10;2.10;;;;;;;;;;5005854;28;20412;-80
2021/08/01 11:15:08;;;;;;;8.13;2.53;;;;;;;;;;4988586;28;20026;-80
2021/08/01 11:17:43;;;;;;;6.22;2.25;;;;;;;;;;4997320;28;20555;-80
2021/08/01 11:20:24;;;;;;;10.27;2.28;;;;;;;;;;4991492;28;20092;-80
2021/08/01 11:22:56;;;;;;;10.32;2.22;;;;;;;;;;4990176;28;20509;-79
2021/08/01 11:25:36;;;;;;;7.80;2.05;;;;;;;;;;5000212;28;20117;-81
2021/08/01 11:28:12;;;;;;;4.53;2.08;;;;;;;;;;4990444;28;20076;-79
2021/08/01 11:30:49;;;;;;;2.90;1.50;;;;;;;;;;5000866;28;20030;-80
2021/08/01 11:33:30;;;;;;;7.85;1.85;;;;;;;;;;5002715;28;20266;-80
2021/08/01 11:36:15;;;;;;;6.95;1.83;;;;;;;;;;5002467;28;20034;-81
2021/08/01 11:38:59;;;;;;;5.07;1.70;;;;;;;;;;5014017;28;20030;-80
2021/08/01 11:41:27;;;;;;;4.78;1.50;;;;;;;;;;4998567;28;20033;-80
2021/08/01 11:44:06;;;;;;;7.85;1.90;;;;;;;;;;4996354;28;20046;-79
2021/08/01 11:46:59;;;;;;;4.15;1.80;;;;;;;;;;4994024;28;20029;-78
2021/08/01 11:49:26;;;;;;;4.05;2.00;;;;;;;;;;4992496;28;20068;-79
2021/08/01 11:51:54;;;;;;;5.47;1.70;;;;;;;;;;4998095;28;20038;-79
2021/08/01 11:54:33;;;;;;;5.68;1.90;;;;;;;;;;4996255;28;20053;-79
2021/08/01 11:57:04;;;;;;;10.63;3.30;;;;;;;;;;4991021;28;20030;-79
2021/08/01 11:59:31;;;;;;;8.23;2.20;;;;;;;;;;4995328;28;20030;-80
2021/08/01 12:01:57;;;;;;;6.93;1.65;;;;;;;;;;4971163;28;20571;-80
2021/08/01 12:04:23;;;;;;;9.77;1.85;;;;;;;;;;4981312;28;20039;-76
2021/08/01 12:06:52;;;;;;;4.80;1.80;;;;;;;;;;4992332;28;20042;-77
2021/08/01 12:09:22;;;;;;;7.80;1.85;;;;;;;;;;4996869;28;20022;-76
2021/08/01 12:11:50;;;;;;;6.05;2.20;;;;;;;;;;4987357;28;20030;-76
2021/08/01 12:14:17;;;;;;;9.90;2.70;;;;;;;;;;4988753;28;20030;-77
2021/08/01 12:17:08;;;;;;;8.00;2.20;;;;;;;;;;4970791;28;20027;-77
2021/08/01 12:19:38;;;;;;;3.83;1.63;;;;;;;;;;5008953;28;20105;-77
2021/08/01 12:22:15;;;;;;;13.00;2.83;;;;;;;;;;4991165;28;20042;-77
2021/08/01 12:24:51;;;;;;;7.22;2.08;;;;;;;;;;4994545;28;20023;-76
2021/08/01 12:27:29;;;;;;;5.88;1.80;;;;;;;;;;4990812;28;23153;-77
2021/08/01 12:29:57;;;;;;;6.47;2.10;;;;;;;;;;4986885;28;20038;-77
2021/08/01 12:32:29;;;;;;;5.13;2.15;;;;;;;;;;4974622;28;20034;-76
2021/08/01 12:35:06;;;;;;;7.32;2.10;;;;;;;;;;4982035;28;20045;-79
2021/08/01 12:37:41;;;;;;;4.30;2.03;;;;;;;;;;5006650;28;20027;-78
2021/08/01 12:40:07;;;;;;;4.88;2.00;;;;;;;;;;4994149;28;20041;-79
2021/08/01 12:42:32;;;;;;;4.05;2.05;;;;;;;;;;4992107;28;20787;-81
2021/08/01 12:45:01;;;;;;;6.40;1.88;;;;;;;;;;4975031;28;20138;-79
2021/08/01 12:47:29;;;;;;;6.22;1.73;;;;;;;;;;4991361;28;20092;-78
2021/08/01 12:49:56;;;;;;;4.65;1.70;;;;;;;;;;4988188;28;20037;-79
2021/08/01 12:52:25;;;;;;;7.75;2.33;;;;;;;;;;4989183;28;20097;-78
2021/08/01 12:54:53;;;;;;;5.05;2.00;;;;;;;;;;4988824;28;20552;-80
2021/08/01 12:57:19;;;;;;;4.57;1.92;;;;;;;;;;4986440;28;20045;-79
2021/08/01 13:00:10;;;;;;;4.50;1.98;;;;;;;;;;4985271;28;20049;-80
2021/08/01 13:02:37;;;;;;;4.32;1.50;;;;;;;;;;4985154;28;20026;-80
2021/08/01 13:05:03;;;;;;;6.75;1.90;;;;;;;;;;4987665;28;20045;-79
2021/08/01 13:07:29;;;;;;;4.20;2.10;;;;;;;;;;4992272;28;20038;-80
2021/08/01 13:10:03;;;;;;;9.75;2.55;;;;;;;;;;4967235;28;20047;-79
2021/08/01 13:12:28;;;;;;;9.82;2.03;;;;;;;;;;4985611;28;20042;-80
2021/08/01 13:14:54;;;;;;;5.53;1.92;;;;;;;;;;4991440;28;20030;-87
2021/08/01 13:17:39;;;;;;;8.45;2.10;;;;;;;;;;4986241;28;20609;-87
2021/08/01 13:20:06;;;;;;;6.80;2.17;;;;;;;;;;4981372;28;20148;-81
2021/08/01 13:22:34;;;;;;;8.77;1.98;;;;;;;;;;4987727;28;20062;-81
2021/08/01 13:25:00;;;;;;;7.72;2.53;;;;;;;;;;4992698;28;20026;-80
2021/08/01 13:27:26;;;;;;;7.28;2.08;;;;;;;;;;4992139;28;20650;-81
2021/08/01 13:30:10;;;;;;;5.60;2.20;;;;;;;;;;4992388;28;20428;-81
2021/08/01 13:32:39;;;;;;;7.55;2.30;;;;;;;;;;4996731;28;20043;-84
2021/08/01 13:35:16;;;;;;;6.85;2.00;;;;;;;;;;4980986;28;20026;-77
2021/08/01 13:37:42;;;;;;;6.97;2.30;;;;;;;;;;5000308;28;20049;-80
2021/08/01 13:40:08;;;;;;;7.63;2.35;;;;;;;;;;4990060;28;20034;-76
2021/08/01 13:42:47;;;;;;;8.27;2.28;;;;;;;;;;4998558;28;20026;-75
2021/08/01 13:45:15;;;;;;;16.70;2.47;;;;;;;;;;4998637;28;20427;-75
2021/08/01 13:47:52;;;;;;;5.93;2.00;;;;;;;;;;4996540;28;20763;-75
2021/08/01 13:50:18;;;;;;;7.70;2.40;;;;;;;;;;4997756;28;20025;-76
2021/08/01 13:52:46;;;;;;;9.60;2.42;;;;;;;;;;4998487;28;20030;-76
2021/08/01 13:55:12;;;;;;;9.70;2.50;;;;;;;;;;4988928;28;20172;-76
2021/08/01 13:57:38;;;;;;;12.60;2.70;;;;;;;;;;4995161;28;20030;-77
2021/08/01 14:00:05;;;;;;;6.65;2.22;;;;;;;;;;4998270;28;20041;-76
2021/08/01 14:02:31;;;;;;;13.00;2.25;;;;;;;;;;5003864;28;20034;-77
2021/08/01 14:04:57;;;;;;;6.22;1.85;;;;;;;;;;4961392;28;20030;-76
2021/08/01 14:07:24;;;;;;;9.57;2.20;;;;;;;;;;4997679;28;20117;-76
2021/08/01 14:09:50;;;;;;;15.30;2.65;;;;;;;;;;4996224;28;20061;-77
2021/08/01 14:12:16;;;;;;;6.38;2.03;;;;;;;;;;4994844;28;20555;-76
2021/08/01 14:14:42;;;;;;;7.07;2.45;;;;;;;;;;4992620;28;20025;-76
2021/08/01 14:17:09;;;;;;;9.27;2.30;;;;;;;;;;4985841;28;20034;-76
2021/08/01 14:19:35;;;;;;;7.38;2.20;;;;;;;;;;5003700;28;20528;-76
2021/08/01 14:22:00;;;;;;;7.13;2.03;;;;;;;;;;4994073;28;20057;-76
2021/08/01 14:24:26;;;;;;;9.32;2.17;;;;;;;;;;4999593;28;20034;-77
2021/08/01 14:26:52;;;;;;;9.73;2.15;;;;;;;;;;5002748;28;20030;-77
2021/08/01 14:29:22;;;;;;;4.25;2.20;;;;;;;;;;4998967;28;20080;-76
2021/08/01 14:31:49;;;;;;;8.80;2.28;;;;;;;;;;4999049;28;20026;-76
2021/08/01 14:34:15;;;;;;;7.93;1.80;;;;;;;;;;4967878;28;20105;-77
2021/08/01 14:36:41;;;;;;;4.93;2.20;;;;;;;;;;4986054;28;20061;-77
2021/08/01 14:39:16;;;;;;;5.65;2.17;;;;;;;;;;4984085;28;20058;-77
2021/08/01 14:41:42;;;;;;;8.85;2.35;;;;;;;;;;5003016;28;20029;-77